sensor_id;sensor_type;location;lat;lon;timestamp;P1;durP1;ratioP1;P2;durP2;ratioP2
22046;SDS011;11187;49.412;20.956;2023-04-24T00:02:27;20.17;;;17.95;;
22046;SDS011;11187;49.412;20.956;2023-04-24T00:05:01;18.98;;;17.08;;
22046;SDS011;11187;49.412;20.956;2023-04-24T00:07:49;19.02;;;17.33;;
22046;SDS011;11187;49.412;20.956;2023-04-24T00:10:25;19.27;;;17.48;;
22046;SDS011;11187;49.412;20.956;2023-04-24T00:13:12;19.70;;;17.13;;
22046;SDS011;11187;49.412;20.956;2023-04-24T00:15:45;20.08;;;17.58;;
22046;SDS011;11187;49.412;20.956;2023-04-24T00:18:39;17.23;;;15.55;;
22046;SDS011;11187;49.412;20.956;2023-04-24T00:21:12;19.33;;;16.42;;
22046;SDS011;11187;49.412;20.956;2023-04-24T00:23:59;18.83;;;16.88;;
22046;SDS011;11187;49.412;20.956;2023-04-24T00:26:32;18.77;;;16.83;;
22046;SDS011;11187;49.412;20.956;2023-04-24T00:29:19;17.95;;;16.25;;
22046;SDS011;11187;49.412;20.956;2023-04-24T00:31:52;22.75;;;16.20;;
22046;SDS011;11187;49.412;20.956;2023-04-24T00:34:46;18.65;;;16.88;;
22046;SDS011;11187;49.412;20.956;2023-04-24T00:37:40;17.98;;;16.05;;
22046;SDS011;11187;49.412;20.956;2023-04-24T00:40:13;18.75;;;16.73;;
22046;SDS011;11187;49.412;20.956;2023-04-24T00:43:00;18.65;;;16.80;;
22046;SDS011;11187;49.412;20.956;2023-04-24T00:45:35;18.80;;;16.70;;
22046;SDS011;11187;49.412;20.956;2023-04-24T00:48:30;17.48;;;15.98;;
22046;SDS011;11187;49.412;20.956;2023-04-24T00:51:04;18.52;;;16.63;;
22046;SDS011;11187;49.412;20.956;2023-04-24T00:53:51;17.33;;;15.52;;
22046;SDS011;11187;49.412;20.956;2023-04-24T00:56:24;18.58;;;16.70;;
22046;SDS011;11187;49.412;20.956;2023-04-24T00:59:11;18.67;;;16.77;;
22046;SDS011;11187;49.412;20.956;2023-04-24T01:01:46;18.33;;;16.63;;
22046;SDS011;11187;49.412;20.956;2023-04-24T01:04:33;18.48;;;16.48;;
22046;SDS011;11187;49.412;20.956;2023-04-24T01:07:06;16.65;;;15.25;;
22046;SDS011;11187;49.412;20.956;2023-04-24T01:09:54;18.40;;;16.25;;
22046;SDS011;11187;49.412;20.956;2023-04-24T01:12:27;19.27;;;16.70;;
22046;SDS011;11187;49.412;20.956;2023-04-24T01:15:21;18.00;;;16.23;;
22046;SDS011;11187;49.412;20.956;2023-04-24T01:17:54;17.75;;;15.90;;
22046;SDS011;11187;49.412;20.956;2023-04-24T01:20:41;19.67;;;17.92;;
22046;SDS011;11187;49.412;20.956;2023-04-24T01:23:17;18.25;;;16.52;;
22046;SDS011;11187;49.412;20.956;2023-04-24T01:26:04;18.83;;;16.83;;
22046;SDS011;11187;49.412;20.956;2023-04-24T01:28:37;18.08;;;16.33;;
22046;SDS011;11187;49.412;20.956;2023-04-24T01:31:24;18.60;;;16.83;;
22046;SDS011;11187;49.412;20.956;2023-04-24T01:33:57;17.45;;;15.75;;
22046;SDS011;11187;49.412;20.956;2023-04-24T01:36:51;18.65;;;16.75;;
22046;SDS011;11187;49.412;20.956;2023-04-24T01:39:24;17.23;;;15.43;;
22046;SDS011;11187;49.412;20.956;2023-04-24T01:42:12;17.25;;;15.57;;
22046;SDS011;11187;49.412;20.956;2023-04-24T01:44:45;17.63;;;15.50;;
22046;SDS011;11187;49.412;20.956;2023-04-24T01:47:40;17.88;;;15.38;;
22046;SDS011;11187;49.412;20.956;2023-04-24T01:50:34;19.15;;;17.15;;
22046;SDS011;11187;49.412;20.956;2023-04-24T01:53:28;17.23;;;15.43;;
22046;SDS011;11187;49.412;20.956;2023-04-24T01:56:01;17.42;;;15.77;;
22046;SDS011;11187;49.412;20.956;2023-04-24T01:58:56;19.88;;;15.43;;
22046;SDS011;11187;49.412;20.956;2023-04-24T02:01:51;18.45;;;16.67;;
22046;SDS011;11187;49.412;20.956;2023-04-24T02:04:24;16.65;;;15.05;;
22046;SDS011;11187;49.412;20.956;2023-04-24T02:07:18;18.17;;;16.40;;
22046;SDS011;11187;49.412;20.956;2023-04-24T02:09:51;16.98;;;15.45;;
22046;SDS011;11187;49.412;20.956;2023-04-24T02:12:45;17.00;;;15.40;;
22046;SDS011;11187;49.412;20.956;2023-04-24T02:15:18;17.98;;;15.90;;
22046;SDS011;11187;49.412;20.956;2023-04-24T02:18:05;17.80;;;15.95;;
22046;SDS011;11187;49.412;20.956;2023-04-24T02:20:39;18.30;;;15.95;;
22046;SDS011;11187;49.412;20.956;2023-04-24T02:23:26;20.83;;;15.40;;
22046;SDS011;11187;49.412;20.956;2023-04-24T02:25:59;20.60;;;15.45;;
22046;SDS011;11187;49.412;20.956;2023-04-24T02:28:46;17.83;;;15.57;;
22046;SDS011;11187;49.412;20.956;2023-04-24T02:31:19;18.98;;;15.63;;
22046;SDS011;11187;49.412;20.956;2023-04-24T02:34:06;18.15;;;15.02;;
22046;SDS011;11187;49.412;20.956;2023-04-24T02:36:39;17.65;;;15.77;;
22046;SDS011;11187;49.412;20.956;2023-04-24T02:39:26;24.02;;;16.60;;
22046;SDS011;11187;49.412;20.956;2023-04-24T02:41:59;17.98;;;16.23;;
22046;SDS011;11187;49.412;20.956;2023-04-24T02:44:48;20.30;;;16.63;;
22046;SDS011;11187;49.412;20.956;2023-04-24T02:47:21;22.52;;;16.40;;
22046;SDS011;11187;49.412;20.956;2023-04-24T02:50:15;21.25;;;16.40;;
22046;SDS011;11187;49.412;20.956;2023-04-24T02:52:48;17.02;;;15.25;;
22046;SDS011;11187;49.412;20.956;2023-04-24T02:55:42;17.50;;;14.73;;
22046;SDS011;11187;49.412;20.956;2023-04-24T02:58:36;23.30;;;16.40;;
22046;SDS011;11187;49.412;20.956;2023-04-24T03:01:09;16.48;;;14.90;;
22046;SDS011;11187;49.412;20.956;2023-04-24T03:04:03;16.85;;;15.15;;
22046;SDS011;11187;49.412;20.956;2023-04-24T03:06:37;18.23;;;16.02;;
22046;SDS011;11187;49.412;20.956;2023-04-24T03:09:31;18.88;;;15.30;;
22046;SDS011;11187;49.412;20.956;2023-04-24T03:12:04;17.10;;;15.40;;
22046;SDS011;11187;49.412;20.956;2023-04-24T03:14:51;18.40;;;15.35;;
22046;SDS011;11187;49.412;20.956;2023-04-24T03:17:24;19.30;;;15.30;;
22046;SDS011;11187;49.412;20.956;2023-04-24T03:20:11;21.23;;;15.48;;
22046;SDS011;11187;49.412;20.956;2023-04-24T03:22:44;17.35;;;15.63;;
22046;SDS011;11187;49.412;20.956;2023-04-24T03:25:31;17.80;;;15.90;;
22046;SDS011;11187;49.412;20.956;2023-04-24T03:28:04;17.20;;;15.50;;
22046;SDS011;11187;49.412;20.956;2023-04-24T03:30:51;21.55;;;15.48;;
22046;SDS011;11187;49.412;20.956;2023-04-24T03:33:24;20.20;;;15.57;;
22046;SDS011;11187;49.412;20.956;2023-04-24T03:36:11;19.73;;;14.98;;
22046;SDS011;11187;49.412;20.956;2023-04-24T03:38:44;17.70;;;16.08;;
22046;SDS011;11187;49.412;20.956;2023-04-24T03:41:31;25.38;;;15.90;;
22046;SDS011;11187;49.412;20.956;2023-04-24T03:44:04;17.15;;;15.40;;
22046;SDS011;11187;49.412;20.956;2023-04-24T03:46:51;17.95;;;16.25;;
22046;SDS011;11187;49.412;20.956;2023-04-24T03:49:24;18.02;;;16.00;;
22046;SDS011;11187;49.412;20.956;2023-04-24T03:52:11;16.75;;;15.07;;
22046;SDS011;11187;49.412;20.956;2023-04-24T03:54:44;17.08;;;15.27;;
22046;SDS011;11187;49.412;20.956;2023-04-24T03:57:31;22.10;;;15.70;;
22046;SDS011;11187;49.412;20.956;2023-04-24T04:00:04;17.30;;;15.48;;
22046;SDS011;11187;49.412;20.956;2023-04-24T04:02:59;16.27;;;14.25;;
22046;SDS011;11187;49.412;20.956;2023-04-24T04:05:54;17.45;;;15.55;;
22046;SDS011;11187;49.412;20.956;2023-04-24T04:08:27;18.10;;;14.77;;
22046;SDS011;11187;49.412;20.956;2023-04-24T04:11:14;17.13;;;15.55;;
22046;SDS011;11187;49.412;20.956;2023-04-24T04:13:47;20.20;;;17.90;;
22046;SDS011;11187;49.412;20.956;2023-04-24T04:16:34;24.33;;;18.38;;
22046;SDS011;11187;49.412;20.956;2023-04-24T04:19:08;23.33;;;17.90;;
22046;SDS011;11187;49.412;20.956;2023-04-24T04:21:55;30.63;;;16.52;;
22046;SDS011;11187;49.412;20.956;2023-04-24T04:24:28;24.58;;;18.45;;
22046;SDS011;11187;49.412;20.956;2023-04-24T04:27:26;24.38;;;18.08;;
22046;SDS011;11187;49.412;20.956;2023-04-24T04:30:20;21.70;;;17.98;;
22046;SDS011;11187;49.412;20.956;2023-04-24T04:33:16;21.17;;;15.32;;
22046;SDS011;11187;49.412;20.956;2023-04-24T04:36:10;20.23;;;16.83;;
22046;SDS011;11187;49.412;20.956;2023-04-24T04:38:43;19.23;;;15.65;;
22046;SDS011;11187;49.412;20.956;2023-04-24T04:41:30;18.95;;;16.92;;
22046;SDS011;11187;49.412;20.956;2023-04-24T04:44:03;17.45;;;15.82;;
22046;SDS011;11187;49.412;20.956;2023-04-24T04:46:57;22.02;;;16.40;;
22046;SDS011;11187;49.412;20.956;2023-04-24T04:49:54;19.70;;;15.70;;
22046;SDS011;11187;49.412;20.956;2023-04-24T04:52:27;20.10;;;18.02;;
22046;SDS011;11187;49.412;20.956;2023-04-24T04:55:21;19.88;;;17.85;;
22046;SDS011;11187;49.412;20.956;2023-04-24T04:58:15;21.48;;;17.58;;
22046;SDS011;11187;49.412;20.956;2023-04-24T05:01:09;16.98;;;15.18;;
22046;SDS011;11187;49.412;20.956;2023-04-24T05:04:04;16.80;;;15.10;;
22046;SDS011;11187;49.412;20.956;2023-04-24T05:06:58;16.88;;;14.95;;
22046;SDS011;11187;49.412;20.956;2023-04-24T05:09:53;22.63;;;15.73;;
22046;SDS011;11187;49.412;20.956;2023-04-24T05:12:47;24.33;;;15.88;;
22046;SDS011;11187;49.412;20.956;2023-04-24T05:15:20;23.85;;;16.50;;
22046;SDS011;11187;49.412;20.956;2023-04-24T05:18:07;18.63;;;15.38;;
22046;SDS011;11187;49.412;20.956;2023-04-24T05:20:40;16.50;;;14.90;;
22046;SDS011;11187;49.412;20.956;2023-04-24T05:23:34;16.63;;;14.95;;
22046;SDS011;11187;49.412;20.956;2023-04-24T05:26:07;18.35;;;14.68;;
22046;SDS011;11187;49.412;20.956;2023-04-24T05:29:02;15.02;;;13.57;;
22046;SDS011;11187;49.412;20.956;2023-04-24T05:31:35;16.80;;;15.20;;
22046;SDS011;11187;49.412;20.956;2023-04-24T05:34:22;16.67;;;14.60;;
22046;SDS011;11187;49.412;20.956;2023-04-24T05:37:16;16.45;;;14.93;;
22046;SDS011;11187;49.412;20.956;2023-04-24T05:40:10;16.90;;;15.40;;
22046;SDS011;11187;49.412;20.956;2023-04-24T05:42:43;15.43;;;14.07;;
22046;SDS011;11187;49.412;20.956;2023-04-24T05:45:30;15.85;;;14.25;;
22046;SDS011;11187;49.412;20.956;2023-04-24T05:48:04;15.48;;;14.10;;
22046;SDS011;11187;49.412;20.956;2023-04-24T05:50:58;17.13;;;15.43;;
22046;SDS011;11187;49.412;20.956;2023-04-24T05:53:52;17.73;;;16.13;;
22046;SDS011;11187;49.412;20.956;2023-04-24T05:56:46;18.90;;;17.10;;
22046;SDS011;11187;49.412;20.956;2023-04-24T05:59:42;18.73;;;16.92;;
22046;SDS011;11187;49.412;20.956;2023-04-24T06:02:15;20.75;;;15.02;;
22046;SDS011;11187;49.412;20.956;2023-04-24T06:05:02;16.95;;;15.27;;
22046;SDS011;11187;49.412;20.956;2023-04-24T06:07:35;21.30;;;15.75;;
22046;SDS011;11187;49.412;20.956;2023-04-24T06:10:22;16.90;;;15.40;;
22046;SDS011;11187;49.412;20.956;2023-04-24T06:12:55;17.38;;;14.70;;
22046;SDS011;11187;49.412;20.956;2023-04-24T06:15:42;22.13;;;15.50;;
22046;SDS011;11187;49.412;20.956;2023-04-24T06:18:16;16.42;;;14.93;;
22046;SDS011;11187;49.412;20.956;2023-04-24T06:21:03;17.48;;;15.45;;
22046;SDS011;11187;49.412;20.956;2023-04-24T06:23:36;17.45;;;15.75;;
22046;SDS011;11187;49.412;20.956;2023-04-24T06:26:23;17.25;;;15.60;;
22046;SDS011;11187;49.412;20.956;2023-04-24T06:28:57;17.48;;;15.77;;
22046;SDS011;11187;49.412;20.956;2023-04-24T06:31:54;18.13;;;16.23;;
22046;SDS011;11187;49.412;20.956;2023-04-24T06:34:48;16.42;;;15.02;;
22046;SDS011;11187;49.412;20.956;2023-04-24T06:37:42;16.38;;;14.93;;
22046;SDS011;11187;49.412;20.956;2023-04-24T06:40:36;16.63;;;15.02;;
22046;SDS011;11187;49.412;20.956;2023-04-24T06:43:09;19.08;;;14.77;;
22046;SDS011;11187;49.412;20.956;2023-04-24T06:45:56;16.02;;;14.52;;
22046;SDS011;11187;49.412;20.956;2023-04-24T06:48:30;17.77;;;15.80;;
22046;SDS011;11187;49.412;20.956;2023-04-24T06:51:17;18.30;;;14.82;;
22046;SDS011;11187;49.412;20.956;2023-04-24T06:53:53;17.60;;;15.57;;
22046;SDS011;11187;49.412;20.956;2023-04-24T06:56:41;23.20;;;16.00;;
22046;SDS011;11187;49.412;20.956;2023-04-24T06:59:14;17.65;;;16.00;;
22046;SDS011;11187;49.412;20.956;2023-04-24T07:02:01;18.88;;;17.35;;
22046;SDS011;11187;49.412;20.956;2023-04-24T07:04:34;17.05;;;15.55;;
22046;SDS011;11187;49.412;20.956;2023-04-24T07:07:21;17.65;;;16.05;;
22046;SDS011;11187;49.412;20.956;2023-04-24T07:09:54;17.30;;;15.35;;
22046;SDS011;11187;49.412;20.956;2023-04-24T07:12:48;17.35;;;15.63;;
22046;SDS011;11187;49.412;20.956;2023-04-24T07:15:43;16.38;;;15.00;;
22046;SDS011;11187;49.412;20.956;2023-04-24T07:18:16;17.88;;;16.38;;
22046;SDS011;11187;49.412;20.956;2023-04-24T07:21:03;17.70;;;15.93;;
22046;SDS011;11187;49.412;20.956;2023-04-24T07:23:36;20.23;;;15.50;;
22046;SDS011;11187;49.412;20.956;2023-04-24T07:26:23;21.58;;;15.80;;
22046;SDS011;11187;49.412;20.956;2023-04-24T07:28:56;16.27;;;14.70;;
22046;SDS011;11187;49.412;20.956;2023-04-24T07:31:43;20.40;;;16.83;;
22046;SDS011;11187;49.412;20.956;2023-04-24T07:34:16;17.15;;;15.73;;
22046;SDS011;11187;49.412;20.956;2023-04-24T07:37:03;17.70;;;16.10;;
22046;SDS011;11187;49.412;20.956;2023-04-24T07:39:36;18.50;;;15.45;;
22046;SDS011;11187;49.412;20.956;2023-04-24T07:42:23;19.08;;;17.48;;
22046;SDS011;11187;49.412;20.956;2023-04-24T07:44:56;16.17;;;14.75;;
22046;SDS011;11187;49.412;20.956;2023-04-24T07:47:50;17.75;;;16.05;;
22046;SDS011;11187;49.412;20.956;2023-04-24T07:50:45;17.27;;;15.68;;
22046;SDS011;11187;49.412;20.956;2023-04-24T07:53:18;16.35;;;14.65;;
22046;SDS011;11187;49.412;20.956;2023-04-24T07:56:05;17.05;;;15.50;;
22046;SDS011;11187;49.412;20.956;2023-04-24T07:58:38;17.60;;;15.95;;
22046;SDS011;11187;49.412;20.956;2023-04-24T08:01:32;16.08;;;14.48;;
22046;SDS011;11187;49.412;20.956;2023-04-24T08:04:26;16.88;;;15.43;;
22046;SDS011;11187;49.412;20.956;2023-04-24T08:07:00;17.63;;;15.57;;
22046;SDS011;11187;49.412;20.956;2023-04-24T08:09:54;18.23;;;16.83;;
22046;SDS011;11187;49.412;20.956;2023-04-24T08:12:48;18.83;;;17.23;;
22046;SDS011;11187;49.412;20.956;2023-04-24T08:15:21;18.30;;;16.48;;
22046;SDS011;11187;49.412;20.956;2023-04-24T08:18:08;17.30;;;15.80;;
22046;SDS011;11187;49.412;20.956;2023-04-24T08:20:41;16.08;;;14.45;;
22046;SDS011;11187;49.412;20.956;2023-04-24T08:23:28;18.25;;;16.73;;
22046;SDS011;11187;49.412;20.956;2023-04-24T08:26:02;17.70;;;15.98;;
22046;SDS011;11187;49.412;20.956;2023-04-24T08:28:50;22.13;;;20.23;;
22046;SDS011;11187;49.412;20.956;2023-04-24T08:31:23;16.02;;;14.77;;
22046;SDS011;11187;49.412;20.956;2023-04-24T08:34:10;17.92;;;15.45;;
22046;SDS011;11187;49.412;20.956;2023-04-24T08:37:04;15.98;;;14.50;;
22046;SDS011;11187;49.412;20.956;2023-04-24T08:39:40;18.20;;;15.73;;
22046;SDS011;11187;49.412;20.956;2023-04-24T08:42:28;16.90;;;15.20;;
22046;SDS011;11187;49.412;20.956;2023-04-24T08:45:01;18.35;;;15.13;;
22046;SDS011;11187;49.412;20.956;2023-04-24T08:47:55;17.70;;;16.15;;
22046;SDS011;11187;49.412;20.956;2023-04-24T08:51:08;32.60;;;17.65;;
22046;SDS011;11187;49.412;20.956;2023-04-24T08:53:42;17.60;;;15.43;;
22046;SDS011;11187;49.412;20.956;2023-04-24T08:56:29;18.10;;;16.70;;
22046;SDS011;11187;49.412;20.956;2023-04-24T08:59:06;18.17;;;16.40;;
22046;SDS011;11187;49.412;20.956;2023-04-24T09:01:53;18.38;;;16.83;;
22046;SDS011;11187;49.412;20.956;2023-04-24T09:04:27;16.17;;;14.75;;
22046;SDS011;11187;49.412;20.956;2023-04-24T09:07:16;20.15;;;17.63;;
22046;SDS011;11187;49.412;20.956;2023-04-24T09:09:50;50.50;;;17.73;;
22046;SDS011;11187;49.412;20.956;2023-04-24T09:12:38;26.15;;;14.80;;
22046;SDS011;11187;49.412;20.956;2023-04-24T09:15:11;21.05;;;16.65;;
22046;SDS011;11187;49.412;20.956;2023-04-24T09:17:58;16.40;;;15.00;;
22046;SDS011;11187;49.412;20.956;2023-04-24T09:20:32;17.50;;;15.80;;
22046;SDS011;11187;49.412;20.956;2023-04-24T09:23:30;15.48;;;14.10;;
22046;SDS011;11187;49.412;20.956;2023-04-24T09:26:24;17.65;;;16.02;;
22046;SDS011;11187;49.412;20.956;2023-04-24T09:28:58;16.27;;;14.73;;
22046;SDS011;11187;49.412;20.956;2023-04-24T09:31:45;16.90;;;15.10;;
22046;SDS011;11187;49.412;20.956;2023-04-24T09:34:22;15.23;;;13.65;;
22046;SDS011;11187;49.412;20.956;2023-04-24T09:37:10;16.73;;;15.18;;
22046;SDS011;11187;49.412;20.956;2023-04-24T09:39:43;15.20;;;13.60;;
22046;SDS011;11187;49.412;20.956;2023-04-24T09:42:30;16.42;;;15.15;;
22046;SDS011;11187;49.412;20.956;2023-04-24T09:45:08;18.15;;;16.55;;
22046;SDS011;11187;49.412;20.956;2023-04-24T09:47:58;19.15;;;17.42;;
22046;SDS011;11187;49.412;20.956;2023-04-24T09:50:32;22.40;;;16.88;;
22046;SDS011;11187;49.412;20.956;2023-04-24T09:53:21;18.63;;;14.80;;
22046;SDS011;11187;49.412;20.956;2023-04-24T09:56:07;18.85;;;17.15;;
22046;SDS011;11187;49.412;20.956;2023-04-24T09:58:55;17.00;;;15.50;;
22046;SDS011;11187;49.412;20.956;2023-04-24T10:01:37;17.30;;;15.75;;
22046;SDS011;11187;49.412;20.956;2023-04-24T10:04:25;17.40;;;16.00;;
22046;SDS011;11187;49.412;20.956;2023-04-24T10:06:59;19.80;;;16.30;;
22046;SDS011;11187;49.412;20.956;2023-04-24T10:09:56;17.35;;;15.82;;
22046;SDS011;11187;49.412;20.956;2023-04-24T10:12:29;16.55;;;14.90;;
22046;SDS011;11187;49.412;20.956;2023-04-24T10:15:17;19.65;;;17.83;;
22046;SDS011;11187;49.412;20.956;2023-04-24T10:17:53;16.95;;;15.45;;
22046;SDS011;11187;49.412;20.956;2023-04-24T10:20:34;18.17;;;16.58;;
22046;SDS011;11187;49.412;20.956;2023-04-24T10:23:15;18.58;;;16.88;;
22046;SDS011;11187;49.412;20.956;2023-04-24T10:25:51;15.80;;;14.23;;
22046;SDS011;11187;49.412;20.956;2023-04-24T10:28:39;17.40;;;16.00;;
22046;SDS011;11187;49.412;20.956;2023-04-24T10:31:14;17.67;;;15.90;;
22046;SDS011;11187;49.412;20.956;2023-04-24T10:34:09;20.73;;;18.98;;
22046;SDS011;11187;49.412;20.956;2023-04-24T10:37:03;20.67;;;18.60;;
22046;SDS011;11187;49.412;20.956;2023-04-24T10:39:36;19.98;;;18.30;;
22046;SDS011;11187;49.412;20.956;2023-04-24T10:42:31;19.35;;;17.77;;
22046;SDS011;11187;49.412;20.956;2023-04-24T10:45:05;19.58;;;17.88;;
22046;SDS011;11187;49.412;20.956;2023-04-24T10:47:57;20.20;;;18.02;;
22046;SDS011;11187;49.412;20.956;2023-04-24T10:50:48;19.73;;;17.95;;
22046;SDS011;11187;49.412;20.956;2023-04-24T10:53:38;21.77;;;19.30;;
22046;SDS011;11187;49.412;20.956;2023-04-24T10:56:15;20.00;;;18.27;;
22046;SDS011;11187;49.412;20.956;2023-04-24T10:59:02;19.85;;;18.30;;
22046;SDS011;11187;49.412;20.956;2023-04-24T11:01:42;21.27;;;19.67;;
22046;SDS011;11187;49.412;20.956;2023-04-24T11:04:46;20.63;;;18.83;;
22046;SDS011;11187;49.412;20.956;2023-04-24T11:07:24;25.20;;;22.85;;
22046;SDS011;11187;49.412;20.956;2023-04-24T11:10:24;22.38;;;20.55;;
22046;SDS011;11187;49.412;20.956;2023-04-24T11:12:58;23.58;;;21.60;;
22046;SDS011;11187;49.412;20.956;2023-04-24T11:18:51;22.92;;;20.73;;
22046;SDS011;11187;49.412;20.956;2023-04-24T11:21:47;22.42;;;20.63;;
22046;SDS011;11187;49.412;20.956;2023-04-24T11:24:50;21.63;;;19.63;;
22046;SDS011;11187;49.412;20.956;2023-04-24T11:27:46;22.25;;;19.58;;
22046;SDS011;11187;49.412;20.956;2023-04-24T11:30:40;22.77;;;20.83;;
22046;SDS011;11187;49.412;20.956;2023-04-24T11:33:13;21.38;;;19.63;;
22046;SDS011;11187;49.412;20.956;2023-04-24T11:36:06;21.70;;;19.80;;
22046;SDS011;11187;49.412;20.956;2023-04-24T11:38:39;22.83;;;20.52;;
22046;SDS011;11187;49.412;20.956;2023-04-24T11:41:26;20.55;;;18.60;;
22046;SDS011;11187;49.412;20.956;2023-04-24T11:44:00;21.38;;;19.55;;
22046;SDS011;11187;49.412;20.956;2023-04-24T11:46:55;20.77;;;18.52;;
22046;SDS011;11187;49.412;20.956;2023-04-24T11:49:29;18.55;;;16.95;;
22046;SDS011;11187;49.412;20.956;2023-04-24T11:52:16;22.35;;;18.30;;
22046;SDS011;11187;49.412;20.956;2023-04-24T11:54:50;21.23;;;19.02;;
22046;SDS011;11187;49.412;20.956;2023-04-24T11:57:36;21.75;;;19.67;;
22046;SDS011;11187;49.412;20.956;2023-04-24T12:00:15;20.55;;;18.58;;
22046;SDS011;11187;49.412;20.956;2023-04-24T12:03:07;17.20;;;15.85;;
22046;SDS011;11187;49.412;20.956;2023-04-24T12:05:42;22.55;;;16.30;;
22046;SDS011;11187;49.412;20.956;2023-04-24T12:08:29;20.40;;;18.50;;
22046;SDS011;11187;49.412;20.956;2023-04-24T12:11:05;19.23;;;17.67;;
22046;SDS011;11187;49.412;20.956;2023-04-24T12:13:53;17.95;;;16.05;;
22046;SDS011;11187;49.412;20.956;2023-04-24T12:16:26;18.35;;;16.73;;
22046;SDS011;11187;49.412;20.956;2023-04-24T12:19:17;17.60;;;15.88;;
22046;SDS011;11187;49.412;20.956;2023-04-24T12:21:59;18.75;;;17.05;;
22046;SDS011;11187;49.412;20.956;2023-04-24T12:25:00;17.25;;;15.75;;
22046;SDS011;11187;49.412;20.956;2023-04-24T12:27:34;16.83;;;15.32;;
22046;SDS011;11187;49.412;20.956;2023-04-24T12:30:25;18.08;;;16.30;;
22046;SDS011;11187;49.412;20.956;2023-04-24T12:33:02;16.70;;;15.20;;
22046;SDS011;11187;49.412;20.956;2023-04-24T12:35:51;16.85;;;14.90;;
22046;SDS011;11187;49.412;20.956;2023-04-24T12:38:29;16.95;;;15.52;;
22046;SDS011;11187;49.412;20.956;2023-04-24T12:41:27;17.60;;;16.10;;
22046;SDS011;11187;49.412;20.956;2023-04-24T12:47:24;15.82;;;14.25;;
22046;SDS011;11187;49.412;20.956;2023-04-24T12:50:18;21.40;;;15.63;;
22046;SDS011;11187;49.412;20.956;2023-04-24T12:53:12;16.23;;;14.65;;
22046;SDS011;11187;49.412;20.956;2023-04-24T12:56:06;18.02;;;16.17;;
22046;SDS011;11187;49.412;20.956;2023-04-24T12:58:39;17.15;;;15.55;;
22046;SDS011;11187;49.412;20.956;2023-04-24T13:01:26;18.30;;;16.05;;
22046;SDS011;11187;49.412;20.956;2023-04-24T13:03:59;17.15;;;15.73;;
22046;SDS011;11187;49.412;20.956;2023-04-24T13:06:46;16.77;;;15.38;;
22046;SDS011;11187;49.412;20.956;2023-04-24T13:09:19;17.83;;;16.25;;
22046;SDS011;11187;49.412;20.956;2023-04-24T13:12:13;18.10;;;16.50;;
22046;SDS011;11187;49.412;20.956;2023-04-24T13:14:46;19.23;;;17.42;;
22046;SDS011;11187;49.412;20.956;2023-04-24T13:17:40;17.83;;;16.08;;
22046;SDS011;11187;49.412;20.956;2023-04-24T13:20:14;17.55;;;16.05;;
22046;SDS011;11187;49.412;20.956;2023-04-24T13:23:07;18.92;;;17.35;;
22046;SDS011;11187;49.412;20.956;2023-04-24T13:26:01;20.55;;;18.75;;
22046;SDS011;11187;49.412;20.956;2023-04-24T13:28:35;17.88;;;16.33;;
22046;SDS011;11187;49.412;20.956;2023-04-24T13:31:22;18.63;;;16.92;;
22046;SDS011;11187;49.412;20.956;2023-04-24T13:33:55;17.65;;;15.93;;
22046;SDS011;11187;49.412;20.956;2023-04-24T13:36:42;18.40;;;16.45;;
22046;SDS011;11187;49.412;20.956;2023-04-24T13:39:19;19.25;;;17.30;;
22046;SDS011;11187;49.412;20.956;2023-04-24T13:42:12;17.33;;;15.85;;
22046;SDS011;11187;49.412;20.956;2023-04-24T13:45:06;18.38;;;16.67;;
22046;SDS011;11187;49.412;20.956;2023-04-24T13:48:04;18.58;;;16.67;;
22046;SDS011;11187;49.412;20.956;2023-04-24T13:50:37;18.45;;;16.92;;
22046;SDS011;11187;49.412;20.956;2023-04-24T13:53:24;18.02;;;16.40;;
22046;SDS011;11187;49.412;20.956;2023-04-24T13:55:57;17.88;;;16.35;;
22046;SDS011;11187;49.412;20.956;2023-04-24T13:58:45;18.25;;;16.80;;
22046;SDS011;11187;49.412;20.956;2023-04-24T14:01:20;17.90;;;16.40;;
22046;SDS011;11187;49.412;20.956;2023-04-24T14:04:07;19.35;;;17.67;;
22046;SDS011;11187;49.412;20.956;2023-04-24T14:06:41;20.02;;;18.10;;
22046;SDS011;11187;49.412;20.956;2023-04-24T14:09:28;19.10;;;17.23;;
22046;SDS011;11187;49.412;20.956;2023-04-24T14:12:01;18.75;;;17.08;;
22046;SDS011;11187;49.412;20.956;2023-04-24T14:14:55;19.70;;;17.63;;
22046;SDS011;11187;49.412;20.956;2023-04-24T14:17:49;21.73;;;19.92;;
22046;SDS011;11187;49.412;20.956;2023-04-24T14:20:23;19.13;;;17.33;;
22046;SDS011;11187;49.412;20.956;2023-04-24T14:23:09;18.25;;;16.55;;
22046;SDS011;11187;49.412;20.956;2023-04-24T14:25:44;19.48;;;17.50;;
22046;SDS011;11187;49.412;20.956;2023-04-24T14:28:38;19.05;;;17.15;;
22046;SDS011;11187;49.412;20.956;2023-04-24T14:31:36;18.83;;;17.13;;
22046;SDS011;11187;49.412;20.956;2023-04-24T14:34:10;18.42;;;16.63;;
22046;SDS011;11187;49.412;20.956;2023-04-24T14:36:56;18.50;;;16.92;;
22046;SDS011;11187;49.412;20.956;2023-04-24T14:39:30;17.85;;;16.17;;
22046;SDS011;11187;49.412;20.956;2023-04-24T14:42:16;18.98;;;17.35;;
22046;SDS011;11187;49.412;20.956;2023-04-24T14:44:50;20.17;;;18.27;;
22046;SDS011;11187;49.412;20.956;2023-04-24T14:47:37;20.00;;;17.95;;
22046;SDS011;11187;49.412;20.956;2023-04-24T14:50:11;20.05;;;18.27;;
22046;SDS011;11187;49.412;20.956;2023-04-24T14:52:57;20.20;;;18.05;;
22046;SDS011;11187;49.412;20.956;2023-04-24T14:55:30;22.80;;;20.13;;
22046;SDS011;11187;49.412;20.956;2023-04-24T14:58:17;20.42;;;18.58;;
22046;SDS011;11187;49.412;20.956;2023-04-24T15:00:51;21.10;;;19.13;;
22046;SDS011;11187;49.412;20.956;2023-04-24T15:03:37;21.65;;;19.48;;
22046;SDS011;11187;49.412;20.956;2023-04-24T15:06:11;20.42;;;18.38;;
22046;SDS011;11187;49.412;20.956;2023-04-24T15:09:05;20.00;;;18.00;;
22046;SDS011;11187;49.412;20.956;2023-04-24T15:11:59;20.92;;;18.85;;
22046;SDS011;11187;49.412;20.956;2023-04-24T15:14:35;21.50;;;19.20;;
22046;SDS011;11187;49.412;20.956;2023-04-24T15:17:28;21.42;;;18.92;;
22046;SDS011;11187;49.412;20.956;2023-04-24T15:20:22;25.73;;;22.17;;
22046;SDS011;11187;49.412;20.956;2023-04-24T15:23:17;22.20;;;19.92;;
22046;SDS011;11187;49.412;20.956;2023-04-24T15:25:50;21.90;;;19.13;;
22046;SDS011;11187;49.412;20.956;2023-04-24T15:28:37;20.55;;;18.42;;
22046;SDS011;11187;49.412;20.956;2023-04-24T15:31:10;20.77;;;18.63;;
22046;SDS011;11187;49.412;20.956;2023-04-24T15:34:04;30.65;;;23.20;;
22046;SDS011;11187;49.412;20.956;2023-04-24T15:36:37;39.22;;;29.17;;
22046;SDS011;11187;49.412;20.956;2023-04-24T15:39:31;30.52;;;27.30;;
22046;SDS011;11187;49.412;20.956;2023-04-24T15:42:05;25.77;;;22.20;;
22046;SDS011;11187;49.412;20.956;2023-04-24T15:44:51;29.55;;;25.02;;
22046;SDS011;11187;49.412;20.956;2023-04-24T15:47:24;25.70;;;22.98;;
22046;SDS011;11187;49.412;20.956;2023-04-24T15:50:11;25.42;;;23.02;;